createdAt,value
2023-02-03T00:00:49.261Z,68.85
2023-02-03T00:02:52.163Z,68.68
2023-02-03T00:04:55.016Z,68.37
2023-02-03T00:06:57.932Z,68.75
2023-02-03T00:09:01.823Z,68.42
2023-02-03T00:11:04.816Z,68.55
2023-02-03T00:13:08.930Z,68.98
2023-02-03T00:15:13.337Z,68.62
2023-02-03T00:17:16.164Z,69.14
2023-02-03T00:19:19.199Z,68.56
2023-02-03T00:21:22.102Z,68.72
2023-02-03T00:23:25.849Z,68.47
2023-02-03T00:25:28.659Z,68.79
2023-02-03T00:27:31.583Z,68.58
2023-02-03T00:29:34.546Z,68.93
2023-02-03T00:31:39.227Z,68.74
2023-02-03T00:33:42.121Z,68.65
2023-02-03T00:35:45.038Z,69.05
2023-02-03T00:37:52.779Z,69.00
2023-02-03T00:39:57.056Z,69.29
2023-02-03T00:41:59.906Z,69.22
2023-02-03T00:44:02.714Z,69.38
2023-02-03T00:46:05.756Z,69.45
2023-02-03T00:48:09.960Z,69.22
2023-02-03T00:50:12.878Z,69.36
2023-02-03T00:52:15.701Z,69.46
2023-02-03T00:54:18.759Z,68.96
2023-02-03T00:56:21.714Z,69.62
2023-02-03T00:58:24.699Z,69.26
2023-02-03T01:00:27.924Z,69.03
2023-02-03T01:02:32.074Z,69.44
2023-02-03T01:04:36.425Z,69.31
2023-02-03T01:06:42.649Z,69.06
2023-02-03T01:08:46.162Z,68.66
2023-02-03T01:10:49.017Z,68.66
2023-02-03T01:12:51.914Z,68.73
2023-02-03T01:14:55.700Z,68.85
2023-02-03T01:16:58.886Z,69.08
2023-02-03T01:19:01.818Z,68.89
2023-02-03T01:21:10.860Z,69.35
2023-02-03T01:23:13.695Z,69.33
2023-02-03T01:25:17.116Z,69.10
2023-02-03T01:27:20.051Z,69.26
2023-02-03T01:29:22.994Z,68.71
2023-02-03T01:31:27.609Z,68.92
2023-02-03T01:33:30.500Z,68.93
2023-02-03T01:35:35.259Z,69.20
2023-02-03T01:37:40.287Z,68.83
2023-02-03T01:39:43.035Z,68.84
2023-02-03T01:41:45.872Z,69.06
2023-02-03T01:43:52.005Z,69.40
2023-02-03T01:45:54.847Z,69.51
2023-02-03T01:48:00.343Z,69.21
2023-02-03T01:50:10.542Z,69.32
2023-02-03T01:52:13.576Z,69.37
2023-02-03T01:54:22.048Z,68.90
2023-02-03T01:56:31.357Z,68.93
2023-02-03T01:58:39.038Z,68.87
2023-02-03T02:00:42.367Z,68.71
2023-02-03T02:02:48.812Z,68.54
2023-02-03T02:04:57.674Z,69.12
2023-02-03T02:07:00.519Z,69.44
2023-02-03T02:09:03.528Z,69.64
2023-02-03T02:11:08.444Z,69.86
2023-02-03T02:13:11.803Z,69.83
2023-02-03T02:15:15.405Z,70.45
2023-02-03T02:17:34.313Z,70.04
2023-02-03T02:19:58.185Z,70.17
2023-02-03T02:22:11.718Z,70.45
2023-02-03T02:24:39.077Z,70.00
2023-02-03T02:27:04.042Z,70.25
2023-02-03T02:29:36.808Z,70.53
2023-02-03T02:31:52.580Z,70.80
2023-02-03T02:33:59.424Z,70.32
2023-02-03T02:36:14.627Z,70.51
2023-02-03T02:38:29.095Z,71.01
2023-02-03T02:40:37.072Z,70.62
2023-02-03T02:42:55.537Z,70.73
2023-02-03T02:45:05.585Z,70.26
2023-02-03T02:47:17.732Z,70.38
2023-02-03T02:49:24.312Z,70.87
2023-02-03T02:51:29.909Z,70.54
2023-02-03T02:53:36.580Z,70.24
2023-02-03T02:55:41.895Z,70.50
2023-02-03T02:57:47.901Z,70.60
2023-02-03T02:59:55.200Z,70.38
2023-02-03T03:01:58.189Z,70.33
2023-02-03T03:04:06.547Z,70.22
2023-02-03T03:06:15.589Z,70.11
2023-02-03T03:08:21.828Z,69.95
2023-02-03T03:10:29.466Z,69.56
2023-02-03T03:12:36.199Z,69.86
2023-02-03T03:14:42.733Z,69.79
2023-02-03T03:16:51.566Z,70.10
2023-02-03T03:19:00.313Z,69.97
2023-02-03T03:21:06.984Z,70.34
2023-02-03T03:23:16.160Z,70.09
2023-02-03T03:25:22.233Z,70.01
2023-02-03T03:27:27.530Z,70.51
2023-02-03T03:29:35.142Z,70.50
2023-02-03T03:31:38.626Z,70.19
2023-02-03T03:33:41.866Z,70.20
2023-02-03T03:35:50.269Z,70.24
2023-02-03T03:38:01.942Z,69.89
2023-02-03T03:40:10.977Z,70.04
2023-02-03T03:42:21.665Z,70.11
2023-02-03T03:44:29.643Z,70.44
2023-02-03T03:46:38.576Z,70.70
2023-02-03T03:48:51.158Z,70.36
2023-02-03T03:50:58.101Z,70.30
2023-02-03T03:53:05.401Z,70.35
2023-02-03T03:55:12.668Z,70.50
2023-02-03T03:57:20.582Z,70.80
2023-02-03T03:59:26.156Z,71.07
2023-02-03T04:01:31.499Z,70.76
2023-02-03T04:03:39.701Z,70.98
2023-02-03T04:05:42.846Z,70.95
2023-02-03T04:07:47.290Z,71.14
2023-02-03T04:09:51.526Z,71.23
2023-02-03T04:12:02.142Z,71.15
2023-02-03T04:14:05.365Z,70.90
2023-02-03T04:16:08.472Z,70.95
2023-02-03T04:18:14.218Z,70.74
2023-02-03T04:20:17.736Z,70.47
2023-02-03T04:22:22.714Z,70.43
2023-02-03T04:24:25.541Z,70.51
2023-02-03T04:26:29.728Z,70.29
2023-02-03T04:28:32.558Z,70.76
2023-02-03T04:30:35.448Z,70.80
2023-02-03T04:32:38.307Z,70.33
2023-02-03T04:34:41.094Z,70.03
2023-02-03T04:36:43.929Z,70.55
2023-02-03T04:38:46.755Z,70.62
2023-02-03T04:40:49.899Z,70.48
2023-02-03T04:42:53.993Z,69.81
2023-02-03T04:44:56.831Z,69.80
2023-02-03T04:46:59.725Z,69.40
2023-02-03T04:49:02.526Z,69.37
2023-02-03T04:51:07.321Z,69.35
2023-02-03T04:53:10.222Z,69.73
2023-02-03T04:55:13.197Z,69.47
2023-02-03T04:57:16.242Z,69.38
2023-02-03T04:59:20.436Z,69.23
2023-02-03T05:01:23.293Z,69.58
2023-02-03T05:03:26.587Z,69.59
2023-02-03T05:05:29.408Z,69.46
2023-02-03T05:07:32.185Z,69.41
2023-02-03T05:09:35.066Z,69.37
2023-02-03T05:11:37.885Z,69.44
2023-02-03T05:13:40.709Z,69.37
2023-02-03T05:15:44.867Z,68.90
2023-02-03T05:17:47.858Z,68.92
2023-02-03T05:19:50.719Z,68.73
2023-02-03T05:21:53.549Z,68.83
2023-02-03T05:23:56.324Z,68.99
2023-02-03T05:25:59.052Z,68.89
2023-02-03T05:28:02.025Z,68.39
2023-02-03T05:30:05.560Z,68.15
2023-02-03T05:32:09.835Z,68.32
2023-02-03T05:34:12.928Z,68.23
2023-02-03T05:36:16.151Z,68.46
2023-02-03T05:38:18.937Z,69.51
2023-02-03T05:40:47.708Z,68.74
2023-02-03T05:42:51.251Z,68.51
2023-02-03T05:44:54.363Z,68.05
2023-02-03T05:46:58.851Z,68.54
2023-02-03T05:49:03.319Z,68.04
2023-02-03T05:51:06.764Z,67.59
2023-02-03T05:53:14.635Z,67.83
2023-02-03T05:55:17.872Z,67.58
2023-02-03T05:57:20.785Z,67.82
2023-02-03T05:59:23.718Z,67.90
2023-02-03T06:01:26.865Z,67.69
2023-02-03T06:03:29.690Z,67.69
2023-02-03T06:05:35.373Z,67.63
2023-02-03T06:07:38.198Z,67.44
2023-02-03T06:09:40.970Z,67.54
2023-02-03T06:11:43.808Z,67.78
2023-02-03T06:13:48.193Z,67.71
2023-02-03T06:15:51.107Z,67.68
2023-02-03T06:17:53.985Z,67.54
2023-02-03T06:19:57.510Z,67.61
2023-02-03T06:22:01.701Z,67.52
2023-02-03T06:24:05.275Z,67.76
2023-02-03T06:26:08.190Z,67.86
2023-02-03T06:28:11.126Z,68.23
2023-02-03T06:30:14.811Z,68.12
2023-02-03T06:32:18.097Z,68.47
2023-02-03T06:34:20.929Z,68.38
2023-02-03T06:36:23.991Z,68.41
2023-02-03T06:38:28.248Z,68.26
2023-02-03T06:40:31.355Z,68.47
2023-02-03T06:42:34.592Z,68.83
2023-02-03T06:44:37.573Z,69.01
2023-02-03T06:46:40.409Z,69.04
2023-02-03T06:48:43.322Z,68.71
2023-02-03T06:50:48.657Z,69.21
2023-02-03T06:52:51.781Z,69.61
2023-02-03T06:54:55.977Z,69.76
2023-02-03T06:56:58.802Z,70.56
2023-02-03T06:59:01.684Z,71.37
2023-02-03T07:01:04.769Z,71.12
2023-02-03T07:03:07.754Z,71.79
2023-02-03T07:05:10.674Z,71.78
2023-02-03T07:07:14.090Z,72.23
2023-02-03T07:09:17.189Z,72.19
2023-02-03T07:11:21.385Z,72.36
2023-02-03T07:13:24.314Z,72.34
2023-02-03T07:15:27.142Z,72.99
2023-02-03T07:17:30.214Z,72.62
2023-02-03T07:19:33.164Z,72.90
2023-02-03T07:21:36.010Z,73.29
2023-02-03T07:23:38.843Z,73.87
2023-02-03T07:25:41.690Z,73.72
2023-02-03T07:27:45.945Z,74.33
2023-02-03T07:29:48.841Z,73.67
2023-02-03T07:31:51.833Z,73.85
2023-02-03T07:33:54.654Z,74.00
2023-02-03T07:35:58.906Z,74.04
2023-02-03T07:38:01.713Z,73.97
2023-02-03T07:40:05.165Z,74.72
2023-02-03T07:42:07.948Z,74.31
2023-02-03T07:44:15.426Z,74.32
2023-02-03T07:46:18.297Z,74.19
2023-02-03T07:48:21.439Z,74.48
2023-02-03T07:50:24.266Z,73.80
2023-02-03T07:52:27.092Z,73.47
2023-02-03T07:54:30.038Z,73.21
2023-02-03T07:56:33.011Z,72.79
2023-02-03T07:58:36.030Z,72.85
2023-02-03T08:00:40.306Z,72.74
2023-02-03T08:02:43.896Z,72.47
2023-02-03T08:04:47.007Z,72.70
2023-02-03T08:06:50.013Z,72.22
2023-02-03T08:08:54.179Z,72.16
2023-02-03T08:10:57.241Z,72.10
2023-02-03T08:13:00.068Z,72.13
2023-02-03T08:15:03.105Z,72.10
2023-02-03T08:17:07.285Z,71.75
2023-02-03T08:19:11.677Z,71.09
2023-02-03T08:21:14.484Z,71.26
2023-02-03T08:23:17.435Z,71.19
2023-02-03T08:25:22.530Z,71.07
2023-02-03T08:27:26.012Z,70.45
2023-02-03T08:29:29.114Z,70.20
2023-02-03T08:31:32.328Z,70.19
2023-02-03T08:33:36.688Z,70.00
2023-02-03T08:35:40.077Z,69.44
2023-02-03T08:37:43.232Z,69.22
2023-02-03T08:39:46.053Z,68.91
2023-02-03T08:41:48.966Z,68.49
2023-02-03T08:43:51.762Z,68.40
2023-02-03T08:45:54.727Z,67.83
2023-02-03T08:47:58.454Z,67.62
2023-02-03T08:50:02.898Z,67.38
2023-02-03T08:52:06.994Z,67.55
2023-02-03T08:54:09.922Z,67.52
2023-02-03T08:56:14.137Z,67.64
2023-02-03T08:58:17.374Z,67.77
2023-02-03T09:00:21.370Z,67.79
2023-02-03T09:02:24.221Z,68.08
2023-02-03T09:04:27.296Z,68.07
2023-02-03T09:06:31.811Z,67.77
2023-02-03T09:08:35.072Z,67.87
2023-02-03T09:10:38.023Z,67.38
2023-02-03T09:12:40.956Z,67.37
2023-02-03T09:14:44.526Z,67.79
2023-02-03T09:16:47.716Z,67.62
2023-02-03T09:18:50.810Z,67.04
2023-02-03T09:20:53.671Z,67.00
2023-02-03T09:22:59.583Z,67.09
2023-02-03T09:25:02.441Z,66.85
2023-02-03T09:27:05.463Z,66.91
2023-02-03T09:29:08.292Z,67.12
2023-02-03T09:31:13.593Z,67.07
2023-02-03T09:33:16.435Z,67.14
2023-02-03T09:35:19.600Z,67.31
2023-02-03T09:37:22.457Z,67.07
2023-02-03T09:39:26.707Z,66.64
2023-02-03T09:41:46.217Z,66.56
2023-02-03T09:44:01.067Z,66.68
2023-02-03T09:46:09.354Z,66.02
2023-02-03T09:48:17.480Z,65.79
2023-02-03T09:50:22.509Z,65.30
2023-02-03T09:52:28.041Z,64.86
2023-02-03T09:54:39.732Z,65.30
2023-02-03T09:56:49.993Z,65.34
2023-02-03T09:58:52.860Z,65.52
2023-02-03T10:00:58.820Z,66.08
2023-02-03T10:03:08.346Z,66.33
2023-02-03T10:05:19.012Z,66.91
2023-02-03T10:07:34.608Z,67.45
2023-02-03T10:10:03.009Z,67.42
2023-02-03T10:12:34.074Z,67.14
2023-02-03T10:14:47.459Z,67.09
2023-02-03T10:17:04.468Z,66.62
2023-02-03T10:19:12.540Z,66.46
2023-02-03T10:21:18.972Z,66.49
2023-02-03T10:23:27.801Z,66.27
2023-02-03T10:25:37.227Z,66.58
2023-02-03T10:27:40.205Z,66.18
2023-02-03T10:29:43.944Z,66.71
2023-02-03T10:31:47.524Z,66.16
2023-02-03T10:33:59.054Z,66.45
2023-02-03T10:36:12.188Z,66.83
2023-02-03T10:38:28.069Z,67.02
2023-02-03T10:40:32.220Z,67.06
2023-02-03T10:42:49.615Z,67.09
2023-02-03T10:44:57.240Z,67.41
2023-02-03T10:46:59.970Z,67.61
2023-02-03T10:49:03.120Z,67.72
2023-02-03T10:51:13.256Z,66.95
2023-02-03T10:53:25.847Z,67.44
2023-02-03T10:55:33.106Z,67.83
2023-02-03T10:57:37.076Z,67.69
2023-02-03T10:59:44.385Z,67.81
2023-02-03T11:01:50.183Z,67.75
2023-02-03T11:04:01.197Z,67.62
2023-02-03T11:06:11.782Z,67.64
2023-02-03T11:08:31.011Z,67.68
2023-02-03T11:10:37.740Z,67.84
2023-02-03T11:12:40.619Z,67.52
2023-02-03T11:14:45.531Z,67.39
2023-02-03T11:16:48.215Z,67.14
2023-02-03T11:18:57.636Z,67.19
2023-02-03T11:21:01.009Z,66.95
2023-02-03T11:23:06.659Z,66.97
2023-02-03T11:25:19.975Z,66.80
2023-02-03T11:27:25.305Z,66.29
2023-02-03T11:29:30.605Z,66.02
2023-02-03T11:31:36.245Z,66.11
2023-02-03T11:33:39.645Z,66.02
2023-02-03T11:35:56.764Z,65.68
2023-02-03T11:38:01.257Z,65.89
2023-02-03T11:40:32.500Z,65.04
2023-02-03T11:42:39.187Z,65.10
2023-02-03T11:44:42.052Z,64.83
2023-02-03T11:46:46.080Z,65.04
2023-02-03T11:49:17.983Z,64.77
2023-02-03T11:51:36.707Z,64.35
2023-02-03T11:54:03.949Z,64.36
2023-02-03T11:56:35.267Z,64.40
2023-02-03T11:59:13.588Z,64.59
2023-02-03T12:01:32.972Z,64.26
2023-02-03T12:04:00.118Z,64.66
2023-02-03T12:06:27.369Z,64.50
2023-02-03T12:08:42.973Z,64.45
2023-02-03T12:10:58.082Z,64.74
2023-02-03T12:13:12.146Z,64.77
2023-02-03T12:15:32.841Z,64.65
2023-02-03T12:17:47.663Z,64.92
2023-02-03T12:20:06.366Z,65.20
2023-02-03T12:22:23.101Z,65.20
2023-02-03T12:24:38.235Z,65.49
2023-02-03T12:26:49.149Z,65.13
2023-02-03T12:29:00.201Z,65.12
2023-02-03T12:31:12.450Z,65.39
2023-02-03T12:33:21.167Z,65.89
2023-02-03T12:35:30.575Z,65.42
2023-02-03T12:37:44.255Z,65.59
2023-02-03T12:39:52.972Z,65.65
2023-02-03T12:42:01.750Z,65.79
2023-02-03T12:44:09.736Z,65.08
2023-02-03T12:46:18.961Z,65.41
2023-02-03T12:48:27.058Z,65.54
2023-02-03T12:50:33.586Z,65.46
2023-02-03T12:52:41.860Z,65.23
2023-02-03T12:54:50.901Z,65.60
2023-02-03T12:56:57.307Z,66.03
2023-02-03T12:59:05.200Z,65.91
2023-02-03T13:01:13.522Z,66.54
2023-02-03T13:03:26.017Z,66.01
2023-02-03T13:05:36.954Z,66.48
2023-02-03T13:07:44.245Z,66.66
2023-02-03T13:09:54.012Z,66.58
2023-02-03T13:12:02.796Z,66.66
2023-02-03T13:14:16.455Z,66.56
2023-02-03T13:16:24.624Z,67.06
2023-02-03T13:18:34.255Z,67.15
2023-02-03T13:20:37.720Z,67.03
2023-02-03T13:22:40.569Z,66.74
2023-02-03T13:24:47.839Z,66.97
2023-02-03T13:27:03.354Z,67.11
2023-02-03T13:29:23.766Z,66.58
2023-02-03T13:31:39.375Z,67.07
2023-02-03T13:34:04.799Z,67.08
2023-02-03T13:36:27.181Z,66.94
2023-02-03T13:38:52.674Z,67.24
2023-02-03T13:41:04.457Z,67.36
2023-02-03T13:43:17.367Z,67.24
2023-02-03T13:45:28.570Z,67.18
2023-02-03T13:47:33.666Z,67.51
2023-02-03T13:49:38.302Z,67.24
2023-02-03T13:51:46.402Z,67.13
2023-02-03T13:53:51.129Z,67.06
2023-02-03T13:55:56.724Z,67.19
2023-02-03T13:58:01.177Z,66.91
2023-02-03T14:00:09.412Z,66.73
2023-02-03T14:02:51.273Z,67.32
2023-02-03T14:04:57.716Z,67.11
2023-02-03T14:07:03.457Z,67.58
2023-02-03T14:09:21.204Z,67.34
2023-02-03T14:11:41.258Z,66.71
2023-02-03T14:13:44.081Z,66.40
2023-02-03T14:16:23.657Z,66.54
2023-02-03T14:18:35.698Z,66.65
2023-02-03T14:20:57.839Z,66.47
2023-02-03T14:23:09.858Z,66.55
2023-02-03T14:25:12.754Z,66.62
2023-02-03T14:27:20.028Z,66.61
2023-02-03T14:29:29.353Z,66.99
2023-02-03T14:31:54.054Z,66.80
2023-02-03T14:34:13.024Z,67.32
2023-02-03T14:36:31.635Z,67.39
2023-02-03T14:38:34.537Z,67.38
2023-02-03T14:40:47.932Z,67.22
2023-02-03T14:43:22.430Z,67.49
2023-02-03T14:45:39.462Z,66.79
2023-02-03T14:47:58.415Z,67.57
2023-02-03T14:50:14.422Z,67.57
2023-02-03T14:52:29.333Z,68.00
2023-02-03T14:54:47.379Z,68.02
2023-02-03T14:57:19.416Z,67.91
2023-02-03T14:59:25.731Z,68.04
2023-02-03T15:02:07.866Z,67.83
2023-02-03T15:04:25.434Z,68.01
2023-02-03T15:06:40.908Z,68.14
2023-02-03T15:08:46.381Z,68.33
2023-02-03T15:10:49.146Z,67.73
2023-02-03T15:12:53.928Z,67.94
2023-02-03T15:15:15.325Z,68.10
2023-02-03T15:17:24.479Z,68.24
2023-02-03T15:19:33.223Z,68.63
2023-02-03T15:21:42.883Z,68.56
2023-02-03T15:23:49.212Z,68.71
2023-02-03T15:25:56.261Z,68.41
2023-02-03T15:28:11.985Z,69.23
2023-02-03T15:30:23.012Z,69.24
2023-02-03T15:32:30.099Z,69.33
2023-02-03T15:34:39.578Z,69.62
2023-02-03T15:36:48.275Z,69.45
2023-02-03T15:38:56.695Z,69.61
2023-02-03T15:40:59.555Z,69.83
2023-02-03T15:43:08.587Z,70.26
2023-02-03T15:45:23.225Z,70.33
2023-02-03T15:47:32.734Z,70.48
2023-02-03T15:49:41.651Z,70.35
2023-02-03T15:51:48.843Z,70.74
2023-02-03T15:53:55.815Z,71.16
2023-02-03T15:56:04.267Z,71.12
2023-02-03T15:58:08.194Z,71.18
2023-02-03T16:00:26.205Z,71.42
2023-02-03T16:02:32.749Z,71.88
2023-02-03T16:04:36.991Z,71.87
2023-02-03T16:06:44.850Z,71.96
2023-02-03T16:08:49.110Z,72.02
2023-02-03T16:10:51.934Z,71.63
2023-02-03T16:12:54.752Z,71.92
2023-02-03T16:14:59.465Z,71.87
2023-02-03T16:17:05.814Z,71.76
2023-02-03T16:19:14.286Z,71.95
2023-02-03T16:21:28.243Z,72.20
2023-02-03T16:23:31.087Z,72.25
2023-02-03T16:25:35.657Z,72.37
2023-02-03T16:27:38.493Z,72.45
2023-02-03T16:29:58.765Z,72.35
2023-02-03T16:32:19.879Z,72.21
2023-02-03T16:34:40.013Z,72.09
2023-02-03T16:37:02.884Z,71.89
2023-02-03T16:39:30.512Z,72.08
2023-02-03T16:41:51.164Z,71.92
2023-02-03T16:44:11.457Z,71.97
2023-02-03T16:49:27.003Z,71.71
2023-02-03T16:51:37.675Z,71.52
2023-02-03T16:53:41.878Z,71.31
2023-02-03T16:55:45.712Z,71.18
2023-02-03T16:57:49.483Z,71.23
2023-02-03T16:59:52.348Z,71.38
2023-02-03T17:01:55.193Z,71.69
2023-02-03T17:03:58.141Z,71.56
2023-02-03T17:06:04.915Z,71.57
2023-02-03T17:08:08.390Z,71.49
2023-02-03T17:10:13.376Z,71.55
2023-02-03T17:12:16.207Z,72.02
2023-02-03T17:14:18.978Z,72.04
2023-02-03T17:16:23.799Z,72.14
2023-02-03T17:18:26.589Z,72.56
2023-02-03T17:20:29.417Z,73.15
2023-02-03T17:22:33.467Z,73.31
2023-02-03T17:24:36.794Z,73.36
2023-02-03T17:26:41.187Z,74.35
2023-02-03T17:28:44.627Z,74.24
2023-02-03T17:30:56.907Z,74.31
2023-02-03T17:32:59.742Z,74.07
2023-02-03T17:35:02.584Z,74.24
2023-02-03T17:37:05.638Z,74.41
2023-02-03T17:55:18.157Z,74.88
2023-02-03T17:57:20.913Z,74.90
2023-02-03T17:59:26.173Z,74.43
2023-02-03T18:01:29.424Z,74.36
2023-02-03T18:03:32.280Z,74.67
2023-02-03T18:05:36.945Z,74.22
2023-02-03T18:07:39.880Z,74.63
2023-02-03T18:09:42.704Z,74.31
2023-02-03T18:11:45.979Z,74.51
2023-02-03T18:13:51.019Z,74.48
2023-02-03T18:15:56.701Z,74.69
2023-02-03T18:17:59.458Z,74.81
2023-02-03T18:20:03.871Z,74.70
2023-02-03T18:22:06.717Z,74.75
2023-02-03T18:24:11.106Z,74.31
2023-02-03T18:26:14.139Z,74.63
2023-02-03T18:28:17.034Z,74.37
2023-02-03T18:30:21.568Z,73.91
2023-02-03T18:32:25.835Z,73.95
2023-02-03T18:34:28.797Z,73.63
2023-02-03T18:36:32.787Z,74.25
2023-02-03T18:38:36.940Z,74.01
2023-02-03T18:40:40.005Z,74.32
2023-02-03T18:42:42.904Z,74.19
2023-02-03T18:44:45.725Z,73.87
2023-02-03T18:46:48.478Z,73.65
2023-02-03T18:48:52.841Z,73.82
2023-02-03T18:50:55.609Z,73.83
2023-02-03T18:52:58.472Z,73.82
2023-02-03T18:55:01.282Z,73.37
2023-02-03T18:57:05.760Z,73.72
2023-02-03T18:59:10.786Z,73.37
2023-02-03T19:01:22.019Z,73.43
2023-02-03T19:03:26.113Z,73.88
2023-02-03T19:05:30.576Z,73.69
2023-02-03T19:07:33.463Z,73.28
2023-02-03T19:09:36.236Z,73.28
2023-02-03T19:11:39.035Z,73.65
2023-02-03T19:13:42.357Z,73.23
2023-02-03T19:15:45.233Z,73.07
2023-02-03T19:17:48.205Z,73.44
2023-02-03T19:19:52.646Z,72.82
2023-02-03T19:21:58.322Z,72.40
2023-02-03T19:24:01.175Z,72.94
2023-02-03T19:26:04.049Z,72.91
2023-02-03T19:28:14.229Z,72.50
2023-02-03T19:30:21.509Z,72.35
2023-02-03T19:32:24.431Z,72.75
2023-02-03T19:34:28.464Z,72.53
2023-02-03T19:36:31.645Z,72.39
2023-02-03T19:38:35.840Z,72.96
2023-02-03T19:40:38.659Z,72.81
2023-02-03T19:42:41.455Z,72.98
2023-02-03T19:44:44.403Z,73.00
2023-02-03T19:46:47.281Z,72.71
2023-02-03T19:48:50.313Z,72.56
2023-02-03T19:50:53.164Z,71.99
2023-02-03T19:52:55.924Z,72.71
2023-02-03T19:55:00.096Z,72.48
2023-02-03T19:57:02.987Z,72.29
2023-02-03T19:59:06.114Z,72.75
2023-02-03T20:01:10.147Z,72.42
2023-02-03T20:03:12.973Z,72.36
2023-02-03T20:05:17.518Z,72.13
2023-02-03T20:07:23.094Z,72.25
2023-02-03T20:09:25.843Z,72.17
2023-02-03T20:11:30.044Z,72.01
2023-02-03T20:13:32.874Z,71.66
2023-02-03T20:15:35.708Z,71.69
2023-02-03T20:17:38.588Z,71.41
2023-02-03T20:19:41.491Z,71.74
2023-02-03T20:21:44.332Z,71.23
2023-02-03T20:23:47.147Z,71.67
2023-02-03T20:25:50.476Z,71.48
2023-02-03T20:27:56.862Z,70.93
2023-02-03T20:29:59.788Z,71.18
2023-02-03T20:32:04.519Z,71.06
2023-02-03T20:34:07.348Z,71.42
2023-02-03T20:36:12.174Z,71.33
2023-02-03T20:38:15.923Z,71.08
2023-02-03T20:40:22.304Z,70.86
2023-02-03T20:42:25.263Z,70.71
2023-02-03T20:44:29.474Z,70.54
2023-02-03T20:46:32.304Z,71.15
2023-02-03T20:48:35.175Z,71.10
2023-02-03T20:50:42.457Z,70.59
2023-02-03T20:52:45.722Z,70.44
2023-02-03T20:54:48.807Z,70.49
2023-02-03T20:56:52.111Z,70.42
2023-02-03T20:58:54.859Z,70.38
2023-02-03T21:00:59.081Z,70.03
2023-02-03T21:03:19.685Z,70.57
2023-02-03T21:05:25.884Z,70.67
2023-02-03T21:07:30.804Z,69.86
2023-02-03T21:09:33.742Z,70.65
2023-02-03T21:11:36.655Z,70.30
2023-02-03T21:13:41.306Z,70.57
2023-02-03T21:15:44.104Z,70.09
2023-02-03T21:17:48.324Z,70.02
2023-02-03T21:19:51.790Z,70.32
2023-02-03T21:21:54.640Z,70.27
2023-02-03T21:23:57.421Z,70.54
2023-02-03T21:26:00.255Z,70.54
2023-02-03T21:28:03.048Z,70.42
2023-02-03T21:30:28.033Z,70.83
2023-02-03T21:32:37.886Z,70.61
2023-02-03T21:34:44.340Z,71.07
2023-02-03T21:36:47.228Z,70.64
2023-02-03T21:38:51.527Z,71.43
2023-02-03T21:40:54.488Z,71.12
2023-02-03T21:42:58.278Z,71.38
2023-02-03T21:45:01.098Z,71.18
2023-02-03T21:47:05.922Z,71.38
2023-02-03T21:49:17.229Z,71.51
2023-02-03T21:51:24.170Z,71.86
2023-02-03T21:53:31.952Z,71.43
2023-02-03T21:55:35.641Z,71.56
2023-02-03T21:57:38.433Z,71.72
2023-02-03T21:59:46.664Z,71.58
2023-02-03T22:01:50.368Z,71.52
2023-02-03T22:03:54.364Z,70.98
2023-02-03T22:06:14.715Z,70.99
2023-02-03T22:08:23.744Z,71.02
2023-02-03T22:10:26.577Z,70.96
2023-02-03T22:12:29.406Z,70.36
2023-02-03T22:14:32.263Z,70.79
2023-02-03T22:16:35.131Z,70.37
2023-02-03T22:18:39.108Z,70.66
2023-02-03T22:20:42.025Z,70.64
2023-02-03T22:22:44.817Z,70.71
2023-02-03T22:24:48.954Z,70.74
2023-02-03T22:26:52.742Z,70.88
2023-02-03T22:28:55.535Z,71.04
2023-02-03T22:30:58.396Z,70.79
2023-02-03T22:33:02.115Z,70.97
2023-02-03T22:35:05.098Z,70.66
2023-02-03T22:37:07.933Z,70.73
2023-02-03T22:39:10.930Z,70.39
2023-02-03T22:41:15.183Z,70.76
2023-02-03T22:43:18.235Z,70.83
2023-02-03T22:45:21.781Z,70.79
2023-02-03T22:47:26.230Z,70.36
2023-02-03T22:49:29.040Z,70.27
2023-02-03T22:51:31.851Z,70.78
2023-02-03T22:53:34.737Z,70.54
2023-02-03T22:55:38.687Z,70.56
2023-02-03T22:57:43.419Z,70.86
2023-02-03T22:59:46.176Z,71.26
2023-02-03T23:01:48.957Z,71.41
2023-02-03T23:03:51.741Z,71.14
2023-02-03T23:05:55.173Z,71.70
2023-02-03T23:07:58.166Z,71.58
2023-02-03T23:10:00.948Z,71.55
2023-02-03T23:12:03.728Z,71.11
2023-02-03T23:14:10.001Z,71.30
2023-02-03T23:16:12.875Z,71.00
2023-02-03T23:18:15.905Z,70.93
2023-02-03T23:20:19.547Z,70.91
2023-02-03T23:22:22.386Z,70.86
2023-02-03T23:24:25.264Z,70.84
2023-02-03T23:26:29.121Z,70.97
2023-02-03T23:28:32.526Z,71.28
2023-02-03T23:30:36.674Z,70.88
2023-02-03T23:32:39.564Z,71.11
2023-02-03T23:35:00.361Z,70.55
2023-02-03T23:37:03.311Z,70.60
2023-02-03T23:39:06.510Z,71.41
2023-02-03T23:41:09.371Z,70.53
2023-02-03T23:43:12.358Z,70.85
2023-02-03T23:45:15.479Z,70.78
2023-02-03T23:47:19.752Z,70.27
2023-02-03T23:49:22.566Z,69.97
2023-02-03T23:51:25.468Z,70.28
2023-02-03T23:53:28.320Z,70.15
2023-02-03T23:55:31.536Z,70.76
2023-02-03T23:57:34.576Z,70.03
2023-02-03T23:59:37.633Z,69.90
